Flight Track Log - Related Links

Times and Time Zones

All times are in EDT time to prevent confusion due to time zone crossing. See the N1926A flight status page for this flight to view local times or setup timezone preferences in your user account.

Time Position Orientation Groundspeed Altitude Reporting Facility
EDT Latitude Longitude Course Direction KTS MPH feet Rate Location/Type
Wed 08:39:53 AM 32.2717 -86.3578 226° Southwest 116 133 5,400  Level Atlanta Center
Wed 08:40:53 AM 32.2481 -86.3892 228° Southwest 116 133 12,000 3,300 Climbing Atlanta Center
Wed 08:41:53 AM 32.2206 -86.4203 224° Southwest 127 146 12,000  Level Atlanta Center
Wed 08:42:53 AM 32.1842 -86.4586 222° Southwest 153 176 12,000  Level Atlanta Center
Wed 08:43:53 AM 32.1458 -86.5042 225° Southwest 182 209 12,000  Level Atlanta Center
Wed 08:44:00 AM 32.0573 -86.6646 226° Southwest  Level FlightAware Approximate
Wed 08:44:53 AM 32.1031 -86.5569 226° Southwest 211 243 12,000  Level Atlanta Center
Wed 08:45:00 AM 32.0175 -86.7123 226° Southwest  Level FlightAware Approximate
Wed 08:45:53 AM 32.0600 -86.6169 230° Southwest 229 264 12,000  Level Atlanta Center
Wed 08:46:53 AM 32.0169 -86.6719 227° Southwest 234 269 12,000  Level Atlanta Center
Wed 08:47:53 AM 31.9700 -86.7294 226° Southwest 239 275 12,000  Level Atlanta Center
Wed 08:48:53 AM 31.9269 -86.7819 226° Southwest 239 275 12,000  Level Atlanta Center
Wed 08:49:53 AM 31.8800 -86.8344 224° Southwest 239 275 12,000  Level Atlanta Center
Wed 08:50:53 AM 31.8328 -86.8917 226° Southwest 239 275 12,000  Level Atlanta Center
Wed 08:51:53 AM 31.7875 -86.9439 224° Southwest 239 275 12,000  Level Atlanta Center
Wed 08:52:53 AM 31.7425 -86.9961 225° Southwest 233 268 12,000  Level Atlanta Center
Wed 08:53:53 AM 31.6994 -87.0533 229° Southwest 238 274 12,000 50 Level Atlanta Center
Wed 08:54:53 AM 31.6606 -87.1056 229° Southwest 238 274 12,100 50 Climbing Atlanta Center
Wed 08:55:53 AM 31.6133 -87.1625 226° Southwest 238 274 12,100 -50 Level Atlanta Center
Wed 08:56:53 AM 31.5681 -87.2147 225° Southwest 238 274 12,000 -369 Descending Atlanta Center
Wed 08:58:52 AM 31.4747 -87.3222 225° Southwest 244 281 11,000 -333 Descending Houston Center
Wed 08:59:53 AM 31.4275 -87.3783 225° Southwest 244 281 11,000  Level Houston Center
Wed 09:00:55 AM 31.3753 -87.4442 227° Southwest 236 272 11,000  Level Houston Center
Wed 09:01:56 AM 31.3258 -87.4956 222° Southwest 237 273 11,000  Level Houston Center
Wed 09:02:58 AM 31.2806 -87.5497 226° Southwest 234 269 11,000 -48 Level Houston Center
Wed 09:04:00 AM 31.2378 -87.6050 228° Southwest 231 266 10,900 -439 Descending Houston Center
Wed 09:05:01 AM 31.1897 -87.6606 225° Southwest 238 274 10,100 -878 Descending Houston Center
Wed 09:06:03 AM 31.1444 -87.7236 230° Southwest 250 288 9,100 -1,707 Descending Houston Center
Wed 09:07:04 AM 31.0947 -87.7861 227° Southwest 255 293 6,600 -1,854 Descending Houston Center
Wed 09:08:06 AM 31.0464 -87.8517 229° Southwest 261 300 5,300 -1,355 Descending Houston Center
Wed 09:09:08 AM 31.0031 -87.9139 231° Southwest 256 295 3,800 -1,610 Descending Houston Center
Wed 09:10:09 AM 30.9514 -87.9922 232° Southwest 253 291 2,000 -878 Descending Houston Center
Wed 09:11:11 AM 30.9233 -88.0639 245° Southwest 246 283 2,000  Level Houston Center
Wed 09:12:12 AM 30.8947 -88.1294 243° Southwest 235 270 2,000  Level Houston Center
Wed 09:13:14 AM 30.8681 -88.1950 245° Southwest 227 261 2,000  Level Houston Center
Wed 09:14:16 AM 30.8425 -88.2556 244° Southwest 217 250 2,000  Level Houston Center
Wed 09:15:17 AM 30.8228 -88.3097 247° West 196 226 2,000  Level Houston Center
Wed 09:16:19 AM 30.7822 -88.3203 193° South 184 212 2,000 -390 Level Houston Center
Wed 09:17:20 AM 30.7461 -88.2897 144° Southeast 172 198 1,200 -683 Descending Houston Center
Wed 09:18:22 AM 30.7181 -88.2656 143° Southeast 149 171 600 -435 Descending Houston Center
Wed 09:19:24 AM 30.6897 -88.2425 145° Southeast 133 153 300 -290 Descending Houston Center
Wed 09:21:00 AM 30.6914 -88.2428 North  Level Estimated

Login

Don't have an account? Register now (free) for customized features, flight alerts, and more!